createdAt,value
2018-07-04T00:01:20.821Z,22.94
2018-07-04T00:06:30.972Z,22.85
2018-07-04T00:11:41.050Z,22.69
2018-07-04T00:16:51.277Z,22.50
2018-07-04T00:22:01.357Z,22.45
2018-07-04T00:27:11.456Z,22.39
2018-07-04T00:32:21.644Z,22.32
2018-07-04T00:37:31.703Z,22.21
2018-07-04T00:42:41.828Z,22.14
2018-07-04T00:47:51.938Z,22.04
2018-07-04T00:53:02.102Z,22.03
2018-07-04T00:58:12.146Z,22.05
2018-07-04T01:03:22.228Z,21.97
2018-07-04T01:08:32.404Z,21.95
2018-07-04T01:13:42.530Z,21.89
2018-07-04T01:18:52.898Z,21.89
2018-07-04T01:24:03.052Z,21.90
2018-07-04T01:29:13.169Z,21.81
2018-07-04T01:34:23.343Z,21.63
2018-07-04T01:39:33.527Z,21.42
2018-07-04T01:44:43.584Z,21.30
2018-07-04T01:49:53.791Z,21.10
2018-07-04T01:55:03.977Z,20.95
2018-07-04T02:00:14.064Z,20.86
2018-07-04T02:05:24.192Z,20.81
2018-07-04T02:10:34.347Z,20.73
2018-07-04T02:15:44.558Z,20.64
2018-07-04T02:20:54.749Z,20.49
2018-07-04T02:26:04.901Z,20.40
2018-07-04T02:31:15.161Z,20.30
2018-07-04T02:36:25.277Z,20.23
2018-07-04T02:41:35.301Z,20.19
2018-07-04T02:46:45.491Z,20.19
2018-07-04T02:51:55.557Z,20.11
2018-07-04T02:57:05.712Z,19.96
2018-07-04T03:02:15.792Z,19.86
2018-07-04T03:07:25.893Z,19.82
2018-07-04T03:12:36.110Z,19.70
2018-07-04T03:17:46.245Z,19.68
2018-07-04T03:22:56.306Z,19.60
2018-07-04T03:28:06.416Z,19.50
2018-07-04T03:33:16.562Z,19.46
2018-07-04T03:38:26.628Z,19.48
2018-07-04T03:43:36.741Z,19.49
2018-07-04T03:48:46.869Z,19.50
2018-07-04T03:53:57.058Z,19.46
2018-07-04T03:59:07.233Z,19.41
2018-07-04T04:04:17.413Z,19.37
2018-07-04T04:09:27.386Z,19.35
2018-07-04T04:14:37.453Z,19.35
2018-07-04T04:19:47.604Z,19.39
2018-07-04T04:24:57.702Z,19.41
2018-07-04T04:30:07.850Z,19.46
2018-07-04T04:35:17.929Z,19.51
2018-07-04T04:40:28.092Z,19.59
2018-07-04T04:45:38.087Z,19.68
2018-07-04T04:50:48.364Z,19.76
2018-07-04T04:55:58.368Z,19.82
2018-07-04T05:01:08.463Z,19.88
2018-07-04T05:06:18.613Z,19.92
2018-07-04T05:11:28.647Z,19.98
2018-07-04T05:16:38.779Z,20.03
2018-07-04T05:21:48.910Z,20.15
2018-07-04T05:26:58.880Z,20.27
2018-07-04T05:32:09.018Z,20.37
2018-07-04T05:37:19.137Z,20.46
2018-07-04T05:42:29.190Z,20.56
2018-07-04T05:47:39.469Z,20.63
2018-07-04T05:52:49.583Z,20.73
2018-07-04T05:57:59.749Z,20.81
2018-07-04T06:03:09.910Z,20.91
2018-07-04T06:08:20.017Z,21.01
2018-07-04T06:13:30.087Z,21.06
2018-07-04T06:18:40.182Z,21.13
2018-07-04T06:23:50.552Z,21.20
2018-07-04T06:29:00.674Z,21.27
2018-07-04T06:34:10.704Z,21.35
2018-07-04T06:39:02.259Z,21.41
2018-07-04T06:43:53.739Z,21.47
2018-07-04T06:48:45.252Z,21.54
2018-07-04T06:53:36.707Z,21.64
2018-07-04T06:58:28.388Z,21.72
2018-07-04T07:03:38.475Z,21.79
2018-07-04T07:08:48.518Z,21.86
2018-07-04T07:13:58.540Z,21.94
2018-07-04T07:19:08.968Z,21.99
2018-07-04T07:24:19.164Z,22.09
2018-07-04T07:29:29.200Z,22.61
2018-07-04T07:34:39.250Z,24.74
2018-07-04T07:39:49.488Z,27.04
2018-07-04T07:44:59.459Z,28.85
2018-07-04T07:50:09.572Z,30.19
2018-07-04T08:00:41.495Z,31.07
2018-07-04T08:05:51.771Z,31.23
2018-07-04T08:11:01.730Z,31.84
2018-07-04T08:16:11.806Z,32.32
2018-07-04T08:21:22.055Z,32.41
2018-07-04T08:26:32.309Z,32.35
2018-07-04T08:31:42.380Z,32.28
2018-07-04T08:36:52.469Z,31.93
2018-07-04T08:42:02.613Z,31.12
2018-07-04T08:47:12.716Z,30.40
2018-07-04T08:52:22.901Z,30.08
2018-07-04T08:57:33.072Z,30.13
2018-07-04T09:02:43.582Z,30.32
2018-07-04T09:07:53.693Z,30.24
2018-07-04T09:13:03.644Z,29.90
2018-07-04T09:18:13.790Z,29.89
2018-07-04T09:23:23.866Z,30.05
2018-07-04T09:28:34.050Z,30.12
2018-07-04T09:33:44.336Z,29.97
2018-07-04T09:38:54.393Z,30.02
2018-07-04T09:44:04.467Z,30.11
2018-07-04T09:49:14.684Z,30.27
2018-07-04T09:54:24.824Z,30.44
2018-07-04T09:59:34.945Z,30.57
2018-07-04T10:04:45.151Z,30.62
2018-07-04T10:09:55.168Z,30.67
2018-07-04T10:15:05.313Z,30.74
2018-07-04T10:20:15.804Z,30.80
2018-07-04T10:25:25.940Z,30.90
2018-07-04T10:30:35.956Z,30.91
2018-07-04T10:35:45.965Z,30.97
2018-07-04T10:40:56.166Z,31.01
2018-07-04T10:46:06.379Z,31.05
2018-07-04T10:51:16.500Z,31.00
2018-07-04T10:56:26.633Z,30.83
2018-07-04T11:01:36.882Z,31.00
2018-07-04T11:06:46.931Z,31.22
2018-07-04T11:11:57.071Z,31.44
2018-07-04T11:17:07.413Z,31.66
2018-07-04T11:22:17.475Z,31.83
2018-07-04T11:27:27.558Z,31.93
2018-07-04T11:32:37.608Z,31.93
2018-07-04T11:37:47.607Z,32.06
2018-07-04T11:42:57.723Z,31.89
2018-07-04T11:47:49.190Z,31.74
2018-07-04T11:52:40.718Z,31.93
2018-07-04T11:57:32.217Z,32.09
2018-07-04T12:02:23.800Z,32.27
2018-07-04T12:07:15.287Z,32.37
2018-07-04T12:12:06.752Z,32.55
2018-07-04T12:16:58.689Z,32.66
2018-07-04T12:21:50.197Z,32.74
2018-07-04T12:26:41.725Z,32.90
2018-07-04T12:31:33.213Z,33.00
2018-07-04T12:36:24.744Z,32.99
2018-07-04T12:41:16.276Z,32.99
2018-07-04T12:46:07.769Z,32.75
2018-07-04T12:50:59.268Z,32.57
2018-07-04T12:56:09.328Z,32.70
2018-07-04T13:01:19.504Z,32.95
2018-07-04T13:06:29.677Z,33.10
2018-07-04T13:11:39.913Z,33.15
2018-07-04T13:16:50.052Z,33.14
2018-07-04T13:22:00.320Z,33.06
2018-07-04T13:27:10.297Z,33.16
2018-07-04T13:32:20.409Z,33.29
2018-07-04T13:37:30.403Z,33.46
2018-07-04T13:42:40.500Z,33.26
2018-07-04T13:47:50.681Z,33.30
2018-07-04T13:53:00.798Z,33.39
2018-07-04T13:58:10.856Z,33.47
2018-07-04T14:03:20.980Z,33.61
2018-07-04T14:08:31.166Z,33.69
2018-07-04T14:13:41.355Z,33.59
2018-07-04T14:18:51.481Z,33.29
2018-07-04T14:24:01.663Z,33.27
2018-07-04T14:29:11.936Z,33.29
2018-07-04T14:34:22.043Z,33.12
2018-07-04T14:39:32.190Z,33.24
2018-07-04T14:44:42.143Z,33.33
2018-07-04T14:49:52.331Z,33.45
2018-07-04T14:55:02.424Z,33.55
2018-07-04T15:00:12.648Z,33.59
2018-07-04T15:05:22.594Z,33.51
2018-07-04T15:10:32.758Z,33.36
2018-07-04T15:15:43.017Z,33.36
2018-07-04T15:20:52.926Z,33.37
2018-07-04T15:26:03.028Z,33.39
2018-07-04T15:31:13.119Z,33.44
2018-07-04T15:36:23.235Z,33.47
2018-07-04T15:41:33.328Z,33.37
2018-07-04T15:46:43.375Z,33.34
2018-07-04T15:51:53.404Z,33.37
2018-07-04T15:57:03.748Z,33.34
2018-07-04T16:02:13.714Z,33.28
2018-07-04T16:07:23.827Z,33.26
2018-07-04T16:12:33.972Z,33.24
2018-07-04T16:17:44.092Z,33.23
2018-07-04T16:22:54.301Z,33.22
2018-07-04T16:28:04.295Z,33.16
2018-07-04T16:33:14.384Z,33.08
2018-07-04T16:38:24.445Z,32.94
2018-07-04T16:43:34.659Z,32.89
2018-07-04T16:48:44.775Z,32.88
2018-07-04T16:53:54.915Z,32.84
2018-07-04T16:59:05.081Z,32.81
2018-07-04T17:04:15.144Z,32.69
2018-07-04T17:09:25.190Z,32.60
2018-07-04T17:14:35.320Z,32.54
2018-07-04T17:19:45.392Z,32.39
2018-07-04T17:24:55.409Z,32.36
2018-07-04T17:30:05.571Z,32.24
2018-07-04T17:35:15.668Z,32.18
2018-07-04T17:40:25.789Z,32.15
2018-07-04T17:45:35.944Z,32.09
2018-07-04T17:50:46.130Z,32.05
2018-07-04T17:55:56.288Z,31.99
2018-07-04T18:01:06.363Z,31.87
2018-07-04T18:06:16.455Z,31.72
2018-07-04T18:11:26.659Z,31.64
2018-07-04T18:16:36.727Z,31.58
2018-07-04T18:21:46.853Z,31.50
2018-07-04T18:26:57.024Z,31.39
2018-07-04T18:32:07.495Z,31.26
2018-07-04T18:37:17.455Z,31.16
2018-07-04T18:42:27.506Z,31.07
2018-07-04T18:47:37.507Z,30.98
2018-07-04T18:52:47.725Z,30.87
2018-07-04T18:57:57.858Z,30.75
2018-07-04T19:03:07.981Z,30.65
2018-07-04T19:08:18.143Z,30.46
2018-07-04T19:13:28.241Z,30.32
2018-07-04T19:18:38.331Z,30.19
2018-07-04T19:23:48.720Z,30.07
2018-07-04T19:28:58.977Z,29.99
2018-07-04T19:34:09.040Z,29.92
2018-07-04T19:39:19.216Z,29.80
2018-07-04T19:44:29.343Z,29.70
2018-07-04T19:49:39.539Z,29.53
2018-07-04T19:54:49.584Z,29.39
2018-07-04T19:59:59.624Z,29.32
2018-07-04T20:05:10.165Z,29.27
2018-07-04T20:10:20.336Z,29.13
2018-07-04T20:15:30.511Z,28.97
2018-07-04T20:20:40.594Z,28.81
2018-07-04T20:25:50.644Z,28.60
2018-07-04T20:31:00.916Z,28.47
2018-07-04T20:36:11.109Z,28.38
2018-07-04T20:41:21.255Z,28.31
2018-07-04T20:46:31.360Z,28.17
2018-07-04T20:51:41.444Z,28.04
2018-07-04T20:56:51.676Z,27.90
2018-07-04T21:02:01.853Z,27.81
2018-07-04T21:07:11.815Z,27.73
2018-07-04T21:12:21.957Z,27.61
2018-07-04T21:17:32.050Z,27.41
2018-07-04T21:22:42.164Z,27.23
2018-07-04T21:27:52.402Z,27.06
2018-07-04T21:33:02.592Z,26.93
2018-07-04T21:38:12.545Z,26.84
2018-07-04T21:43:22.622Z,26.71
2018-07-04T21:48:32.687Z,26.53
2018-07-04T21:53:42.922Z,26.42
2018-07-04T21:58:53.021Z,26.27
2018-07-04T22:04:03.216Z,26.18
2018-07-04T22:09:13.215Z,26.04
2018-07-04T22:14:23.424Z,25.89
2018-07-04T22:19:33.551Z,25.83
2018-07-04T22:24:43.714Z,25.67
2018-07-04T22:29:53.755Z,25.62
2018-07-04T22:35:03.888Z,25.54
2018-07-04T22:40:14.835Z,25.47
2018-07-04T22:45:24.973Z,25.30
2018-07-04T22:50:35.078Z,25.22
2018-07-04T22:55:45.183Z,25.06
2018-07-04T23:00:55.320Z,24.97
2018-07-04T23:06:05.411Z,24.86
2018-07-04T23:11:15.497Z,24.77
2018-07-04T23:16:25.615Z,24.72
2018-07-04T23:21:35.730Z,24.61
2018-07-04T23:26:45.882Z,24.56
2018-07-04T23:31:55.974Z,24.54
2018-07-04T23:37:06.161Z,24.44
2018-07-04T23:42:16.188Z,24.31
2018-07-04T23:47:26.278Z,24.15
2018-07-04T23:52:36.336Z,24.12
2018-07-04T23:57:46.412Z,24.07
